createdAt,value
2022-10-09T00:01:10.141Z,4.25
2022-10-09T00:03:38.660Z,4.50
2022-10-09T00:06:07.486Z,4.65
2022-10-09T00:08:35.197Z,4.72
2022-10-09T00:11:14.444Z,4.78
2022-10-09T00:13:40.966Z,4.18
2022-10-09T00:16:12.359Z,4.93
2022-10-09T00:18:40.143Z,4.10
2022-10-09T00:21:24.827Z,3.47
2022-10-09T00:23:57.595Z,4.05
2022-10-09T00:26:24.686Z,2.40
2022-10-09T00:28:51.619Z,1.90
2022-10-09T00:31:18.623Z,3.20
2022-10-09T00:33:51.463Z,2.70
2022-10-09T00:36:20.707Z,3.35
2022-10-09T00:38:47.766Z,3.85
2022-10-09T00:41:17.173Z,3.45
2022-10-09T00:44:02.125Z,3.72
2022-10-09T00:46:51.333Z,3.40
2022-10-09T00:49:33.807Z,3.53
2022-10-09T00:52:03.286Z,3.92
2022-10-09T00:54:39.662Z,3.45
2022-10-09T00:57:06.939Z,3.53
2022-10-09T00:59:33.689Z,3.40
2022-10-09T01:02:00.364Z,2.50
2022-10-09T01:04:27.567Z,3.00
2022-10-09T01:07:18.430Z,3.38
2022-10-09T01:09:54.645Z,3.25
2022-10-09T01:12:53.797Z,3.03
2022-10-09T01:15:21.269Z,3.47
2022-10-09T01:18:07.084Z,3.22
2022-10-09T01:20:56.705Z,3.67
2022-10-09T01:24:17.582Z,3.50
2022-10-09T01:27:00.306Z,3.58
2022-10-09T01:29:32.216Z,3.65
2022-10-09T01:32:01.477Z,4.30
2022-10-09T01:34:52.590Z,4.00
2022-10-09T01:37:21.183Z,3.60
2022-10-09T01:39:49.165Z,3.55
2022-10-09T01:42:18.187Z,3.35
2022-10-09T01:44:45.862Z,3.67
2022-10-09T01:47:17.896Z,2.97
2022-10-09T01:49:50.224Z,3.15
2022-10-09T01:52:38.040Z,3.35
2022-10-09T01:55:18.931Z,3.13
2022-10-09T01:57:52.287Z,3.53
2022-10-09T02:00:19.518Z,3.38
2022-10-09T02:02:48.676Z,3.60
2022-10-09T02:05:21.182Z,3.40
2022-10-09T02:07:47.948Z,3.90
2022-10-09T02:10:16.832Z,3.58
2022-10-09T02:12:53.143Z,3.80
2022-10-09T02:15:22.479Z,4.03
2022-10-09T02:17:53.809Z,4.38
2022-10-09T02:20:30.252Z,3.70
2022-10-09T02:22:58.509Z,3.35
2022-10-09T02:25:29.261Z,3.38
2022-10-09T02:27:56.590Z,3.70
2022-10-09T02:30:26.229Z,3.20
2022-10-09T02:32:54.418Z,3.88
2022-10-09T02:35:25.054Z,3.30
2022-10-09T02:37:51.510Z,3.72
2022-10-09T02:40:17.976Z,3.50
2022-10-09T02:42:44.445Z,3.45
2022-10-09T02:45:15.041Z,3.72
2022-10-09T02:47:41.492Z,4.07
2022-10-09T02:50:08.497Z,4.05
2022-10-09T02:52:34.987Z,3.50
2022-10-09T02:55:01.499Z,3.75
2022-10-09T02:57:27.934Z,4.30
2022-10-09T02:59:54.388Z,3.50
2022-10-09T03:02:20.950Z,4.30
2022-10-09T03:04:49.309Z,3.30
2022-10-09T03:07:15.807Z,3.78
2022-10-09T03:09:42.814Z,3.53
2022-10-09T03:12:09.268Z,4.07
2022-10-09T03:14:37.303Z,4.18
2022-10-09T03:17:03.868Z,3.90
2022-10-09T03:19:30.315Z,3.55
2022-10-09T03:21:56.836Z,3.83
2022-10-09T03:24:27.761Z,3.45
2022-10-09T03:26:54.359Z,3.90
2022-10-09T03:29:20.916Z,3.33
2022-10-09T03:31:52.376Z,3.67
2022-10-09T03:34:23.866Z,3.35
2022-10-09T03:36:50.362Z,3.03
2022-10-09T03:39:16.811Z,3.50
2022-10-09T03:41:43.294Z,3.20
2022-10-09T03:44:12.848Z,3.67
2022-10-09T03:46:39.387Z,4.15
2022-10-09T03:49:05.983Z,4.32
2022-10-09T03:51:32.494Z,3.67
2022-10-09T03:54:00.304Z,3.60
2022-10-09T03:56:26.811Z,3.45
2022-10-09T03:58:53.444Z,4.47
2022-10-09T04:01:19.970Z,3.78
2022-10-09T04:03:48.393Z,3.53
2022-10-09T04:06:15.059Z,3.60
2022-10-09T04:08:41.538Z,3.83
2022-10-09T04:11:08.025Z,3.35
2022-10-09T04:13:34.525Z,3.67
2022-10-09T04:16:02.254Z,3.63
2022-10-09T04:18:28.768Z,3.88
2022-10-09T04:20:56.759Z,4.07
2022-10-09T04:23:26.042Z,3.92
2022-10-09T04:25:54.845Z,3.85
2022-10-09T04:28:23.254Z,3.85
2022-10-09T04:30:49.804Z,4.25
2022-10-09T04:33:16.298Z,3.88
2022-10-09T04:35:46.758Z,4.20
2022-10-09T04:38:13.227Z,3.63
2022-10-09T04:40:39.664Z,4.30
2022-10-09T04:43:06.307Z,4.13
2022-10-09T04:45:32.975Z,4.40
2022-10-09T04:47:59.636Z,4.28
2022-10-09T04:50:26.086Z,4.25
2022-10-09T04:52:58.482Z,4.20
2022-10-09T04:55:26.035Z,3.88
2022-10-09T04:57:52.517Z,4.20
2022-10-09T05:00:19.239Z,3.75
2022-10-09T05:02:45.941Z,4.30
2022-10-09T05:05:14.325Z,3.33
2022-10-09T05:07:40.782Z,3.33
2022-10-09T05:10:07.782Z,3.97
2022-10-09T05:12:34.434Z,4.15
2022-10-09T05:15:00.887Z,3.75
2022-10-09T05:17:27.928Z,4.30
2022-10-09T05:19:54.450Z,4.20
2022-10-09T05:22:20.924Z,4.22
2022-10-09T05:24:51.860Z,4.03
2022-10-09T05:27:18.387Z,3.78
2022-10-09T05:29:44.813Z,3.90
2022-10-09T05:32:11.335Z,4.15
2022-10-09T05:34:40.962Z,3.97
2022-10-09T05:37:07.546Z,4.63
2022-10-09T05:39:35.913Z,4.18
2022-10-09T05:42:02.436Z,4.40
2022-10-09T05:44:33.200Z,3.70
2022-10-09T05:46:59.714Z,4.47
2022-10-09T05:49:26.426Z,4.30
2022-10-09T05:51:54.565Z,4.60
2022-10-09T05:54:21.252Z,4.57
2022-10-09T05:56:47.853Z,4.45
2022-10-09T05:59:19.480Z,3.90
2022-10-09T06:01:49.132Z,4.65
2022-10-09T06:04:21.289Z,4.82
2022-10-09T06:06:48.715Z,5.13
2022-10-09T06:09:25.468Z,4.93
2022-10-09T06:11:54.961Z,4.55
2022-10-09T06:14:24.413Z,4.75
2022-10-09T06:16:51.226Z,5.43
2022-10-09T06:19:19.784Z,4.85
2022-10-09T06:21:47.680Z,5.05
2022-10-09T06:24:23.272Z,5.00
2022-10-09T06:26:53.720Z,5.38
2022-10-09T06:29:20.354Z,5.45
2022-10-09T06:31:46.892Z,4.97
2022-10-09T06:34:16.725Z,5.32
2022-10-09T06:36:44.250Z,5.68
2022-10-09T06:39:11.111Z,5.53
2022-10-09T06:41:37.601Z,5.38
2022-10-09T06:44:24.171Z,5.25
2022-10-09T06:46:50.648Z,5.22
2022-10-09T06:49:17.197Z,5.85
2022-10-09T06:51:43.718Z,5.20
2022-10-09T06:54:15.083Z,7.00
2022-10-09T06:56:41.622Z,5.93
2022-10-09T06:59:10.169Z,7.65
2022-10-09T07:01:36.638Z,5.80
2022-10-09T07:04:07.506Z,6.25
2022-10-09T07:06:38.043Z,5.93
2022-10-09T07:09:07.448Z,5.78
2022-10-09T07:11:43.236Z,5.50
2022-10-09T07:14:13.151Z,6.03
2022-10-09T07:16:44.465Z,6.28
2022-10-09T07:19:12.691Z,5.72
2022-10-09T07:21:42.110Z,5.43
2022-10-09T07:24:12.824Z,5.38
2022-10-09T07:26:42.943Z,5.30
2022-10-09T07:29:11.232Z,6.30
2022-10-09T07:31:38.488Z,5.70
2022-10-09T07:34:09.961Z,5.90
2022-10-09T07:36:36.662Z,5.28
2022-10-09T07:39:04.448Z,5.72
2022-10-09T07:41:31.373Z,5.78
2022-10-09T07:43:59.673Z,5.38
2022-10-09T07:46:32.139Z,5.93
2022-10-09T07:48:59.843Z,6.03
2022-10-09T07:51:29.050Z,5.75
2022-10-09T07:53:57.601Z,5.75
2022-10-09T07:56:32.336Z,5.50
2022-10-09T07:59:01.193Z,5.82
2022-10-09T08:01:29.382Z,5.90
2022-10-09T08:04:01.384Z,5.93
2022-10-09T08:06:28.432Z,4.93
2022-10-09T08:08:57.005Z,5.05
2022-10-09T08:11:25.529Z,5.65
2022-10-09T08:13:56.498Z,5.63
2022-10-09T08:16:24.281Z,5.30
2022-10-09T08:18:55.127Z,5.63
2022-10-09T08:21:21.577Z,5.63
2022-10-09T08:24:09.181Z,5.50
2022-10-09T08:26:35.660Z,6.25
2022-10-09T08:29:04.838Z,6.03
2022-10-09T08:31:32.283Z,6.05
2022-10-09T08:34:02.638Z,6.05
2022-10-09T08:36:29.769Z,5.88
2022-10-09T08:38:56.340Z,6.47
2022-10-09T08:41:52.039Z,5.75
2022-10-09T08:44:39.178Z,6.20
2022-10-09T08:47:36.198Z,6.40
2022-10-09T08:50:43.977Z,5.80
2022-10-09T08:53:33.597Z,5.28
2022-10-09T08:56:06.322Z,5.47
2022-10-09T08:58:34.634Z,5.07
2022-10-09T09:01:12.625Z,5.70
2022-10-09T09:04:00.875Z,4.68
2022-10-09T09:06:47.445Z,4.90
2022-10-09T09:09:30.367Z,4.78
2022-10-09T09:12:17.762Z,5.15
2022-10-09T09:15:01.281Z,5.03
2022-10-09T09:17:27.695Z,5.22
2022-10-09T09:20:17.255Z,5.63
2022-10-09T09:22:48.738Z,5.13
2022-10-09T09:25:21.444Z,5.68
2022-10-09T09:27:48.699Z,5.60
2022-10-09T09:30:28.438Z,4.60
2022-10-09T09:33:04.752Z,4.88
2022-10-09T09:35:55.569Z,4.53
2022-10-09T09:38:22.057Z,4.40
2022-10-09T09:40:50.662Z,4.30
2022-10-09T09:43:23.966Z,4.25
2022-10-09T09:45:55.595Z,4.60
2022-10-09T09:48:33.749Z,5.15
2022-10-09T09:51:23.527Z,4.63
2022-10-09T09:53:57.543Z,4.38
2022-10-09T09:59:37.828Z,4.53
2022-10-09T10:02:14.549Z,4.63
2022-10-09T10:04:58.171Z,4.80
2022-10-09T10:07:38.922Z,4.47
2022-10-09T10:10:15.213Z,5.25
2022-10-09T10:12:48.310Z,5.45
2022-10-09T10:15:22.378Z,4.90
2022-10-09T10:17:54.982Z,4.85
2022-10-09T10:20:21.577Z,4.97
2022-10-09T10:22:53.840Z,5.57
2022-10-09T10:25:24.737Z,4.95
2022-10-09T10:27:57.466Z,5.13
2022-10-09T10:30:24.091Z,4.22
2022-10-09T10:33:10.076Z,4.60
2022-10-09T10:35:39.915Z,4.45
2022-10-09T10:38:31.101Z,4.18
2022-10-09T10:41:03.549Z,5.03
2022-10-09T10:43:42.017Z,4.25
2022-10-09T10:46:17.262Z,4.50
2022-10-09T10:51:42.936Z,4.03
2022-10-09T10:54:39.331Z,4.15
2022-10-09T10:57:12.463Z,3.85
2022-10-09T10:59:46.216Z,4.43
2022-10-09T11:02:41.128Z,3.15
2022-10-09T11:05:25.997Z,3.58
2022-10-09T11:08:29.913Z,3.42
2022-10-09T11:11:33.584Z,3.55
2022-10-09T11:14:04.682Z,3.75
2022-10-09T11:16:56.489Z,3.17
2022-10-09T11:19:41.706Z,3.67
2022-10-09T11:22:27.439Z,2.50
2022-10-09T11:25:14.687Z,3.28
2022-10-09T11:27:55.689Z,2.63
2022-10-09T11:30:22.492Z,2.95
2022-10-09T11:33:24.809Z,2.35
2022-10-09T11:36:02.008Z,3.30
2022-10-09T11:38:36.636Z,2.60
2022-10-09T11:41:07.363Z,3.10
2022-10-09T11:43:42.976Z,2.65
2022-10-09T11:46:25.762Z,3.42
2022-10-09T11:49:12.662Z,3.00
2022-10-09T11:52:04.211Z,2.80
2022-10-09T11:54:35.192Z,2.20
2022-10-09T11:57:06.314Z,2.40
2022-10-09T11:59:42.014Z,2.35
2022-10-09T12:02:27.748Z,2.90
2022-10-09T12:04:59.322Z,3.08
2022-10-09T12:07:27.850Z,2.45
2022-10-09T12:10:00.362Z,2.67
2022-10-09T12:12:26.823Z,2.15
2022-10-09T12:14:56.596Z,2.47
2022-10-09T12:17:23.002Z,2.25
2022-10-09T12:20:00.793Z,2.30
2022-10-09T12:23:25.325Z,2.58
2022-10-09T12:25:48.887Z,2.70
2022-10-09T12:28:30.566Z,2.30
2022-10-09T12:31:00.733Z,2.35
2022-10-09T12:33:36.730Z,2.40
2022-10-09T12:36:11.075Z,2.38
2022-10-09T12:38:37.613Z,2.42
2022-10-09T12:41:06.978Z,2.00
2022-10-09T12:43:34.513Z,1.83
2022-10-09T12:46:02.134Z,1.80
2022-10-09T12:48:35.434Z,2.03
2022-10-09T12:51:01.927Z,1.80
2022-10-09T12:53:29.006Z,2.03
2022-10-09T12:56:00.451Z,1.80
2022-10-09T12:58:32.129Z,2.20
2022-10-09T13:01:05.238Z,1.90
2022-10-09T13:03:37.099Z,1.73
2022-10-09T13:06:26.239Z,1.90
2022-10-09T13:08:57.060Z,1.90
2022-10-09T13:11:26.463Z,1.70
2022-10-09T13:13:55.556Z,1.73
2022-10-09T13:16:23.762Z,2.08
2022-10-09T13:18:57.151Z,1.63
2022-10-09T13:21:29.131Z,1.60
2022-10-09T13:24:10.811Z,1.70
2022-10-09T13:26:39.552Z,1.25
2022-10-09T13:29:07.361Z,1.40
2022-10-09T13:31:36.714Z,1.50
2022-10-09T13:34:12.322Z,1.63
2022-10-09T13:36:39.049Z,1.80
2022-10-09T13:39:05.585Z,1.42
2022-10-09T13:41:33.664Z,1.30
2022-10-09T13:44:01.892Z,1.40
2022-10-09T13:46:28.517Z,1.50
2022-10-09T13:48:54.998Z,1.20
2022-10-09T13:51:21.615Z,1.33
2022-10-09T13:53:56.831Z,1.27
2022-10-09T13:56:24.083Z,1.20
2022-10-09T13:58:50.589Z,1.63
2022-10-09T14:01:17.393Z,1.52
2022-10-09T14:03:48.107Z,1.77
2022-10-09T14:06:14.624Z,1.92
2022-10-09T14:08:41.160Z,1.75
2022-10-09T14:11:07.754Z,1.58
2022-10-09T14:13:34.288Z,1.60
2022-10-09T14:16:05.580Z,1.55
2022-10-09T14:18:32.126Z,1.88
2022-10-09T14:20:58.569Z,1.60
2022-10-09T14:23:25.266Z,1.67
2022-10-09T14:25:51.739Z,1.60
2022-10-09T14:28:18.496Z,1.45
2022-10-09T14:30:45.117Z,1.45
2022-10-09T14:33:12.835Z,1.30
2022-10-09T14:35:39.635Z,1.88
2022-10-09T14:38:06.150Z,1.75
2022-10-09T14:40:32.662Z,1.85
2022-10-09T14:42:59.114Z,1.85
2022-10-09T14:45:25.913Z,1.67
2022-10-09T14:47:52.388Z,2.25
2022-10-09T14:50:18.866Z,1.90
2022-10-09T14:52:45.322Z,1.60
2022-10-09T14:55:12.879Z,2.25
2022-10-09T14:57:39.375Z,1.60
2022-10-09T15:00:06.518Z,1.30
2022-10-09T15:02:33.088Z,1.50
2022-10-09T15:05:00.837Z,1.60
2022-10-09T15:07:28.130Z,1.50
2022-10-09T15:09:56.815Z,1.38
2022-10-09T15:12:23.450Z,1.70
2022-10-09T15:14:49.927Z,1.70
2022-10-09T15:17:16.401Z,1.60
2022-10-09T15:19:42.854Z,1.45
2022-10-09T15:22:09.333Z,1.33
2022-10-09T15:24:40.022Z,1.50
2022-10-09T15:27:06.481Z,1.52
2022-10-09T15:29:32.926Z,1.60
2022-10-09T15:31:59.392Z,1.73
2022-10-09T15:34:30.749Z,1.35
2022-10-09T15:36:57.203Z,1.63
2022-10-09T15:39:23.737Z,1.17
2022-10-09T15:41:50.229Z,1.20
2022-10-09T15:44:20.609Z,1.10
2022-10-09T15:46:48.381Z,1.60
2022-10-09T15:49:15.021Z,1.23
2022-10-09T15:51:41.795Z,1.10
2022-10-09T15:54:11.030Z,1.50
2022-10-09T15:56:39.908Z,1.35
2022-10-09T15:59:07.582Z,1.50
2022-10-09T16:01:34.199Z,1.20
2022-10-09T16:04:03.746Z,1.10
2022-10-09T16:06:30.468Z,1.23
2022-10-09T16:08:58.231Z,1.30
2022-10-09T16:11:26.640Z,1.30
2022-10-09T16:13:59.080Z,1.75
2022-10-09T16:16:27.267Z,1.65
2022-10-09T16:18:54.865Z,1.40
2022-10-09T16:21:25.539Z,1.80
2022-10-09T16:23:58.804Z,1.63
2022-10-09T16:26:29.014Z,1.50
2022-10-09T16:28:55.560Z,1.65
2022-10-09T16:31:28.154Z,1.80
2022-10-09T16:33:58.395Z,1.95
2022-10-09T16:36:24.934Z,1.63
2022-10-09T16:38:51.414Z,1.50
2022-10-09T16:41:20.604Z,1.20
2022-10-09T16:43:51.533Z,3.40
2022-10-09T16:49:02.691Z,1.60
2022-10-09T16:51:35.850Z,1.55
2022-10-09T16:54:05.424Z,1.17
2022-10-09T16:56:35.430Z,1.35
2022-10-09T16:59:08.865Z,1.50
2022-10-09T17:01:37.654Z,1.33
2022-10-09T17:04:05.856Z,1.60
2022-10-09T17:06:32.417Z,1.30
2022-10-09T17:08:59.483Z,1.30
2022-10-09T17:11:28.085Z,1.55
2022-10-09T17:13:59.214Z,1.40
2022-10-09T17:16:28.941Z,1.45
2022-10-09T17:18:55.712Z,1.13
2022-10-09T17:21:22.558Z,1.48
2022-10-09T17:23:57.856Z,1.60
2022-10-09T17:28:52.613Z,1.40
2022-10-09T17:31:21.868Z,1.92
2022-10-09T17:33:51.251Z,1.40
2022-10-09T17:36:20.243Z,1.25
2022-10-09T17:38:48.363Z,1.85
2022-10-09T17:41:17.280Z,1.50
2022-10-09T17:43:51.368Z,1.60
2022-10-09T17:46:19.046Z,1.55
2022-10-09T17:48:52.102Z,1.45
2022-10-09T17:51:34.486Z,1.52
2022-10-09T17:54:09.532Z,1.60
2022-10-09T17:56:39.178Z,1.48
2022-10-09T17:59:06.012Z,1.60
2022-10-09T18:01:32.604Z,1.85
2022-10-09T18:04:03.905Z,1.58
2022-10-09T18:06:33.522Z,1.70
2022-10-09T18:09:00.694Z,1.80
2022-10-09T18:11:28.437Z,1.75
2022-10-09T18:13:59.039Z,1.55
2022-10-09T18:16:35.348Z,1.70
2022-10-09T18:19:06.099Z,1.52
2022-10-09T18:21:34.352Z,1.80
2022-10-09T18:24:02.734Z,2.00
2022-10-09T18:26:29.364Z,1.80
2022-10-09T18:28:55.850Z,1.90
2022-10-09T18:31:23.705Z,2.33
2022-10-09T18:33:54.398Z,2.10
2022-10-09T18:36:25.789Z,2.17
2022-10-09T18:38:54.946Z,1.90
2022-10-09T18:41:23.461Z,1.95
2022-10-09T18:43:54.241Z,2.05
2022-10-09T18:46:25.593Z,1.95
2022-10-09T18:48:53.959Z,2.22
2022-10-09T18:51:23.207Z,2.33
2022-10-09T18:53:59.863Z,2.15
2022-10-09T18:56:29.198Z,2.28
2022-10-09T18:58:55.760Z,2.70
2022-10-09T19:01:22.814Z,2.50
2022-10-09T19:03:50.671Z,2.90
2022-10-09T19:06:18.427Z,2.88
2022-10-09T19:08:45.390Z,2.95
2022-10-09T19:11:14.487Z,2.72
2022-10-09T19:13:42.413Z,2.90
2022-10-09T19:16:13.381Z,3.38
2022-10-09T19:18:40.302Z,2.60
2022-10-09T19:21:07.053Z,2.53
2022-10-09T19:23:33.737Z,3.13
2022-10-09T19:26:00.309Z,2.80
2022-10-09T19:28:33.089Z,3.13
2022-10-09T19:31:02.464Z,3.30
2022-10-09T19:33:29.162Z,3.13
2022-10-09T19:35:57.787Z,3.00
2022-10-09T19:38:25.362Z,3.60
2022-10-09T19:40:52.030Z,3.75
2022-10-09T19:43:19.930Z,4.00
2022-10-09T19:46:00.797Z,4.03
2022-10-09T19:48:27.284Z,4.13
2022-10-09T19:50:53.712Z,4.13
2022-10-09T19:53:20.169Z,4.20
2022-10-09T19:55:46.782Z,3.65
2022-10-09T19:58:13.236Z,4.15
2022-10-09T20:00:44.211Z,4.60
2022-10-09T20:03:10.786Z,4.15
2022-10-09T20:05:38.857Z,4.03
2022-10-09T20:08:05.851Z,3.90
2022-10-09T20:10:35.773Z,3.95
2022-10-09T20:13:02.715Z,4.15
2022-10-09T20:15:29.242Z,4.05
2022-10-09T20:17:55.803Z,3.58
2022-10-09T20:20:22.313Z,3.65
2022-10-09T20:22:49.025Z,4.35
2022-10-09T20:25:19.662Z,3.90
2022-10-09T20:27:46.154Z,3.50
2022-10-09T20:30:13.142Z,3.22
2022-10-09T20:32:39.597Z,3.38
2022-10-09T20:35:10.136Z,3.33
2022-10-09T20:37:36.632Z,3.35
2022-10-09T20:40:03.337Z,3.38
2022-10-09T20:42:30.942Z,3.28
2022-10-09T20:45:01.622Z,3.47
2022-10-09T20:47:28.111Z,3.30
2022-10-09T20:49:54.573Z,3.33
2022-10-09T20:52:21.199Z,3.47
2022-10-09T20:54:48.702Z,3.33
2022-10-09T20:57:15.173Z,3.80
2022-10-09T20:59:41.733Z,3.45
2022-10-09T21:02:08.300Z,3.13
2022-10-09T21:04:35.580Z,3.47
2022-10-09T21:07:02.064Z,3.83
2022-10-09T21:09:32.978Z,4.18
2022-10-09T21:11:59.796Z,3.75
2022-10-09T21:14:27.636Z,3.20
2022-10-09T21:16:54.094Z,3.42
2022-10-09T21:19:20.632Z,3.83
2022-10-09T21:21:50.844Z,3.65
2022-10-09T21:24:21.759Z,3.50
2022-10-09T21:26:48.338Z,3.60
2022-10-09T21:29:14.838Z,3.40
2022-10-09T21:31:42.105Z,3.80
2022-10-09T21:34:13.051Z,3.55
2022-10-09T21:37:20.468Z,3.35
2022-10-09T21:39:33.624Z,3.60
2022-10-09T21:42:00.081Z,3.78
2022-10-09T21:44:28.640Z,3.80
2022-10-09T21:46:55.113Z,3.70
2022-10-09T21:49:24.059Z,3.92
2022-10-09T21:51:50.790Z,3.83
2022-10-09T21:54:17.954Z,3.90
2022-10-09T21:56:44.486Z,3.33
2022-10-09T21:59:11.254Z,3.20
2022-10-09T22:01:38.452Z,3.60
2022-10-09T22:04:09.280Z,3.97
2022-10-09T22:06:35.757Z,3.50
2022-10-09T22:09:02.307Z,3.50
2022-10-09T22:11:28.810Z,3.75
2022-10-09T22:13:59.897Z,3.75
2022-10-09T22:16:26.490Z,3.67
2022-10-09T22:18:53.468Z,4.05
2022-10-09T22:21:19.986Z,3.72
2022-10-09T22:23:50.083Z,3.70
2022-10-09T22:26:19.757Z,3.85
2022-10-09T22:28:47.355Z,3.95
2022-10-09T22:31:23.816Z,3.70
2022-10-09T22:34:01.581Z,3.65
2022-10-09T22:36:30.666Z,3.53
2022-10-09T22:38:58.830Z,3.90
2022-10-09T22:41:27.209Z,3.40
2022-10-09T22:43:57.454Z,3.40
2022-10-09T22:46:30.749Z,3.72
2022-10-09T22:48:57.985Z,4.00
2022-10-09T22:51:26.013Z,3.47
2022-10-09T22:53:58.533Z,4.10
2022-10-09T22:56:32.367Z,3.90
2022-10-09T22:58:59.091Z,3.72
2022-10-09T23:01:41.829Z,3.90
2022-10-09T23:04:14.563Z,3.83
2022-10-09T23:06:42.195Z,4.13
2022-10-09T23:09:12.108Z,3.95
2022-10-09T23:11:38.607Z,3.80
2022-10-09T23:14:11.283Z,3.85
2022-10-09T23:16:38.226Z,4.40
2022-10-09T23:19:07.046Z,4.38
2022-10-09T23:21:37.840Z,3.90
2022-10-09T23:24:08.677Z,3.90
2022-10-09T23:26:36.922Z,3.60
2022-10-09T23:29:08.981Z,4.03
2022-10-09T23:31:36.441Z,3.70
2022-10-09T23:34:05.360Z,4.28
2022-10-09T23:36:32.148Z,4.25
2022-10-09T23:39:01.097Z,4.32
2022-10-09T23:41:28.753Z,3.92
2022-10-09T23:43:56.577Z,3.80
2022-10-09T23:46:29.344Z,3.70
2022-10-09T23:48:55.986Z,3.75
2022-10-09T23:51:24.227Z,3.70
2022-10-09T23:53:55.008Z,3.75
2022-10-09T23:56:27.853Z,4.22
2022-10-09T23:58:55.655Z,4.20
